Terminal Aerodrome Forecast
Issued by NWS

Current Version | Previous Version | Text Only | Print | Product List | Glossary On
Versions: 1 2 3 4 5 6 7 8 9 10 11 12 13 14
945
FTUS44 KLZK 112320
TAFPBF
TAF
KPBF 112320Z 1200/1224 04007KT P6SM BKN250
     FM121600 01007KT P6SM FEW035 SCT250=

USA.gov is the U.S. government's official web portal to all federal, state and local government web resources and services.